sensor_id;sensor_type;location;lat;lon;timestamp;temperature;humidity
5578;DHT22;2811;51.900;10.734;2022-08-21T00:00:53;19.10;99.90
5578;DHT22;2811;51.900;10.734;2022-08-21T00:03:20;19.00;99.90
5578;DHT22;2811;51.900;10.734;2022-08-21T00:05:49;18.90;99.90
5578;DHT22;2811;51.900;10.734;2022-08-21T00:08:17;19.00;99.90
5578;DHT22;2811;51.900;10.734;2022-08-21T00:10:44;19.00;99.90
5578;DHT22;2811;51.900;10.734;2022-08-21T00:13:12;18.90;99.90
5578;DHT22;2811;51.900;10.734;2022-08-21T00:15:40;18.80;99.90
5578;DHT22;2811;51.900;10.734;2022-08-21T00:18:09;18.80;99.90
5578;DHT22;2811;51.900;10.734;2022-08-21T00:20:37;18.70;99.90
5578;DHT22;2811;51.900;10.734;2022-08-21T00:23:04;18.70;99.90
5578;DHT22;2811;51.900;10.734;2022-08-21T00:25:32;18.50;99.90
5578;DHT22;2811;51.900;10.734;2022-08-21T00:27:59;18.50;99.90
5578;DHT22;2811;51.900;10.734;2022-08-21T00:30:27;18.30;99.90
5578;DHT22;2811;51.900;10.734;2022-08-21T00:32:56;18.20;99.90
5578;DHT22;2811;51.900;10.734;2022-08-21T00:35:28;18.20;99.90
5578;DHT22;2811;51.900;10.734;2022-08-21T00:37:56;18.20;99.90
5578;DHT22;2811;51.900;10.734;2022-08-21T00:40:27;18.20;99.90
5578;DHT22;2811;51.900;10.734;2022-08-21T00:42:54;18.10;99.90
5578;DHT22;2811;51.900;10.734;2022-08-21T00:45:22;18.00;99.90
5578;DHT22;2811;51.900;10.734;2022-08-21T00:47:50;17.90;99.90
5578;DHT22;2811;51.900;10.734;2022-08-21T00:50:18;17.80;99.90
5578;DHT22;2811;51.900;10.734;2022-08-21T00:52:47;17.80;99.90
5578;DHT22;2811;51.900;10.734;2022-08-21T00:55:14;17.50;99.90
5578;DHT22;2811;51.900;10.734;2022-08-21T00:57:44;17.40;99.90
5578;DHT22;2811;51.900;10.734;2022-08-21T01:00:15;17.50;99.90
5578;DHT22;2811;51.900;10.734;2022-08-21T01:02:45;17.50;99.90
5578;DHT22;2811;51.900;10.734;2022-08-21T01:05:13;17.60;99.90
5578;DHT22;2811;51.900;10.734;2022-08-21T01:07:40;17.60;99.90
5578;DHT22;2811;51.900;10.734;2022-08-21T01:10:09;17.60;99.90
5578;DHT22;2811;51.900;10.734;2022-08-21T01:12:36;17.50;99.90
5578;DHT22;2811;51.900;10.734;2022-08-21T01:15:05;17.50;99.90
5578;DHT22;2811;51.900;10.734;2022-08-21T01:17:33;17.40;99.90
5578;DHT22;2811;51.900;10.734;2022-08-21T01:20:03;17.30;99.90
5578;DHT22;2811;51.900;10.734;2022-08-21T01:22:31;17.20;99.90
5578;DHT22;2811;51.900;10.734;2022-08-21T01:24:58;16.90;99.90
5578;DHT22;2811;51.900;10.734;2022-08-21T01:27:25;16.90;99.90
5578;DHT22;2811;51.900;10.734;2022-08-21T01:29:54;16.90;99.90
5578;DHT22;2811;51.900;10.734;2022-08-21T01:32:23;16.80;99.90
5578;DHT22;2811;51.900;10.734;2022-08-21T01:34:51;16.80;99.90
5578;DHT22;2811;51.900;10.734;2022-08-21T01:37:20;16.70;99.90
5578;DHT22;2811;51.900;10.734;2022-08-21T01:39:48;16.70;99.90
5578;DHT22;2811;51.900;10.734;2022-08-21T01:42:15;16.70;99.90
5578;DHT22;2811;51.900;10.734;2022-08-21T01:44:42;16.60;99.90
5578;DHT22;2811;51.900;10.734;2022-08-21T01:47:11;16.60;99.90
5578;DHT22;2811;51.900;10.734;2022-08-21T01:49:40;16.50;99.90
5578;DHT22;2811;51.900;10.734;2022-08-21T01:52:07;16.30;99.90
5578;DHT22;2811;51.900;10.734;2022-08-21T01:54:34;16.20;99.90
5578;DHT22;2811;51.900;10.734;2022-08-21T01:57:03;16.10;99.90
5578;DHT22;2811;51.900;10.734;2022-08-21T01:59:30;15.80;99.90
5578;DHT22;2811;51.900;10.734;2022-08-21T02:01:57;16.00;99.90
5578;DHT22;2811;51.900;10.734;2022-08-21T02:04:24;15.80;99.90
5578;DHT22;2811;51.900;10.734;2022-08-21T02:06:51;15.70;99.90
5578;DHT22;2811;51.900;10.734;2022-08-21T02:09:18;15.50;99.90
5578;DHT22;2811;51.900;10.734;2022-08-21T02:11:46;15.50;99.90
5578;DHT22;2811;51.900;10.734;2022-08-21T02:14:15;15.50;99.90
5578;DHT22;2811;51.900;10.734;2022-08-21T02:16:43;15.50;99.90
5578;DHT22;2811;51.900;10.734;2022-08-21T02:19:10;15.40;99.90
5578;DHT22;2811;51.900;10.734;2022-08-21T02:21:37;15.40;99.90
5578;DHT22;2811;51.900;10.734;2022-08-21T02:24:04;15.40;99.90
5578;DHT22;2811;51.900;10.734;2022-08-21T02:26:31;15.40;99.90
5578;DHT22;2811;51.900;10.734;2022-08-21T02:28:58;15.40;99.90
5578;DHT22;2811;51.900;10.734;2022-08-21T02:31:26;15.40;99.90
5578;DHT22;2811;51.900;10.734;2022-08-21T02:33:53;15.20;99.90
5578;DHT22;2811;51.900;10.734;2022-08-21T02:36:19;15.10;99.90
5578;DHT22;2811;51.900;10.734;2022-08-21T02:38:46;15.10;99.90
5578;DHT22;2811;51.900;10.734;2022-08-21T02:41:14;15.10;99.90
5578;DHT22;2811;51.900;10.734;2022-08-21T02:43:42;15.10;99.90
5578;DHT22;2811;51.900;10.734;2022-08-21T02:46:11;14.80;99.90
5578;DHT22;2811;51.900;10.734;2022-08-21T02:48:40;15.00;99.90
5578;DHT22;2811;51.900;10.734;2022-08-21T02:51:08;14.90;99.90
5578;DHT22;2811;51.900;10.734;2022-08-21T02:53:36;14.90;99.90
5578;DHT22;2811;51.900;10.734;2022-08-21T02:56:05;14.90;99.90
5578;DHT22;2811;51.900;10.734;2022-08-21T02:58:34;14.80;99.90
5578;DHT22;2811;51.900;10.734;2022-08-21T03:01:02;14.90;99.90
5578;DHT22;2811;51.900;10.734;2022-08-21T03:03:29;14.80;99.90
5578;DHT22;2811;51.900;10.734;2022-08-21T03:05:57;14.80;99.90
5578;DHT22;2811;51.900;10.734;2022-08-21T03:08:24;14.90;99.90
5578;DHT22;2811;51.900;10.734;2022-08-21T03:10:52;15.00;99.90
5578;DHT22;2811;51.900;10.734;2022-08-21T03:13:19;15.00;99.90
5578;DHT22;2811;51.900;10.734;2022-08-21T03:15:47;14.90;99.90
5578;DHT22;2811;51.900;10.734;2022-08-21T03:18:14;14.90;99.90
5578;DHT22;2811;51.900;10.734;2022-08-21T03:20:42;14.80;99.90
5578;DHT22;2811;51.900;10.734;2022-08-21T03:23:12;14.80;99.90
5578;DHT22;2811;51.900;10.734;2022-08-21T03:25:39;14.80;99.90
5578;DHT22;2811;51.900;10.734;2022-08-21T03:28:08;14.70;99.90
5578;DHT22;2811;51.900;10.734;2022-08-21T03:30:35;14.70;99.90
5578;DHT22;2811;51.900;10.734;2022-08-21T03:33:02;14.70;99.90
5578;DHT22;2811;51.900;10.734;2022-08-21T03:35:29;14.70;99.90
5578;DHT22;2811;51.900;10.734;2022-08-21T03:37:56;14.70;99.90
5578;DHT22;2811;51.900;10.734;2022-08-21T03:40:25;14.70;99.90
5578;DHT22;2811;51.900;10.734;2022-08-21T03:42:52;14.80;99.90
5578;DHT22;2811;51.900;10.734;2022-08-21T03:45:19;14.70;99.90
5578;DHT22;2811;51.900;10.734;2022-08-21T03:47:53;14.80;99.90
5578;DHT22;2811;51.900;10.734;2022-08-21T03:50:21;14.70;99.90
5578;DHT22;2811;51.900;10.734;2022-08-21T03:52:48;14.70;99.90
5578;DHT22;2811;51.900;10.734;2022-08-21T03:55:15;14.80;99.90
5578;DHT22;2811;51.900;10.734;2022-08-21T03:57:43;14.80;99.90
5578;DHT22;2811;51.900;10.734;2022-08-21T04:00:11;14.90;99.90
5578;DHT22;2811;51.900;10.734;2022-08-21T04:02:39;14.80;99.90
5578;DHT22;2811;51.900;10.734;2022-08-21T04:05:06;14.80;99.90
5578;DHT22;2811;51.900;10.734;2022-08-21T04:07:33;14.70;99.90
5578;DHT22;2811;51.900;10.734;2022-08-21T04:10:00;14.70;99.90
5578;DHT22;2811;51.900;10.734;2022-08-21T04:12:27;14.70;99.90
5578;DHT22;2811;51.900;10.734;2022-08-21T04:14:55;14.70;99.90
5578;DHT22;2811;51.900;10.734;2022-08-21T04:17:22;14.70;99.90
5578;DHT22;2811;51.900;10.734;2022-08-21T04:19:48;14.70;99.90
5578;DHT22;2811;51.900;10.734;2022-08-21T04:22:15;14.70;99.90
5578;DHT22;2811;51.900;10.734;2022-08-21T04:24:42;14.80;99.90
5578;DHT22;2811;51.900;10.734;2022-08-21T04:27:09;14.80;99.90
5578;DHT22;2811;51.900;10.734;2022-08-21T04:29:36;14.70;99.90
5578;DHT22;2811;51.900;10.734;2022-08-21T04:32:05;14.70;99.90
5578;DHT22;2811;51.900;10.734;2022-08-21T04:34:31;14.80;99.90
5578;DHT22;2811;51.900;10.734;2022-08-21T04:36:58;14.80;99.90
5578;DHT22;2811;51.900;10.734;2022-08-21T04:39:24;14.70;99.90
5578;DHT22;2811;51.900;10.734;2022-08-21T04:41:51;14.70;99.90
5578;DHT22;2811;51.900;10.734;2022-08-21T04:44:18;14.70;99.90
5578;DHT22;2811;51.900;10.734;2022-08-21T04:46:44;14.80;99.90
5578;DHT22;2811;51.900;10.734;2022-08-21T04:49:12;14.90;99.90
5578;DHT22;2811;51.900;10.734;2022-08-21T04:51:39;14.80;99.90
5578;DHT22;2811;51.900;10.734;2022-08-21T04:54:10;14.90;99.90
5578;DHT22;2811;51.900;10.734;2022-08-21T04:56:42;15.00;99.90
5578;DHT22;2811;51.900;10.734;2022-08-21T04:59:14;15.10;99.90
5578;DHT22;2811;51.900;10.734;2022-08-21T05:01:42;15.10;99.90
5578;DHT22;2811;51.900;10.734;2022-08-21T05:04:14;15.10;99.90
5578;DHT22;2811;51.900;10.734;2022-08-21T05:06:43;15.10;99.90
5578;DHT22;2811;51.900;10.734;2022-08-21T05:09:13;15.00;99.90
5578;DHT22;2811;51.900;10.734;2022-08-21T05:11:41;14.90;99.90
5578;DHT22;2811;51.900;10.734;2022-08-21T05:14:08;14.90;99.90
5578;DHT22;2811;51.900;10.734;2022-08-21T05:16:35;15.10;99.90
5578;DHT22;2811;51.900;10.734;2022-08-21T05:19:01;15.20;99.90
5578;DHT22;2811;51.900;10.734;2022-08-21T05:21:29;15.40;99.90
5578;DHT22;2811;51.900;10.734;2022-08-21T05:23:56;15.50;99.90
5578;DHT22;2811;51.900;10.734;2022-08-21T05:26:23;15.70;99.90
5578;DHT22;2811;51.900;10.734;2022-08-21T05:28:49;15.90;99.90
5578;DHT22;2811;51.900;10.734;2022-08-21T05:31:16;15.80;99.90
5578;DHT22;2811;51.900;10.734;2022-08-21T05:33:42;15.90;99.90
5578;DHT22;2811;51.900;10.734;2022-08-21T05:36:09;16.20;99.90
5578;DHT22;2811;51.900;10.734;2022-08-21T05:38:37;16.40;99.90
5578;DHT22;2811;51.900;10.734;2022-08-21T05:41:04;16.50;99.90
5578;DHT22;2811;51.900;10.734;2022-08-21T05:43:30;16.50;99.90
5578;DHT22;2811;51.900;10.734;2022-08-21T05:45:58;16.40;99.90
5578;DHT22;2811;51.900;10.734;2022-08-21T05:48:25;16.60;99.90
5578;DHT22;2811;51.900;10.734;2022-08-21T05:50:52;16.90;99.90
5578;DHT22;2811;51.900;10.734;2022-08-21T05:53:21;17.00;99.90
5578;DHT22;2811;51.900;10.734;2022-08-21T05:55:50;17.30;99.90
5578;DHT22;2811;51.900;10.734;2022-08-21T05:58:19;17.70;99.90
5578;DHT22;2811;51.900;10.734;2022-08-21T06:00:47;18.00;99.90
5578;DHT22;2811;51.900;10.734;2022-08-21T06:03:16;17.70;99.90
5578;DHT22;2811;51.900;10.734;2022-08-21T06:05:43;18.10;99.90
5578;DHT22;2811;51.900;10.734;2022-08-21T06:08:11;18.30;99.90
5578;DHT22;2811;51.900;10.734;2022-08-21T06:10:37;18.70;99.90
5578;DHT22;2811;51.900;10.734;2022-08-21T06:13:05;19.00;99.90
5578;DHT22;2811;51.900;10.734;2022-08-21T06:15:32;19.20;99.90
5578;DHT22;2811;51.900;10.734;2022-08-21T06:17:59;19.40;99.90
5578;DHT22;2811;51.900;10.734;2022-08-21T06:20:26;19.20;99.90
5578;DHT22;2811;51.900;10.734;2022-08-21T06:22:53;19.20;99.90
5578;DHT22;2811;51.900;10.734;2022-08-21T06:25:20;19.20;99.90
5578;DHT22;2811;51.900;10.734;2022-08-21T06:27:46;19.30;99.90
5578;DHT22;2811;51.900;10.734;2022-08-21T06:30:14;19.60;99.90
5578;DHT22;2811;51.900;10.734;2022-08-21T06:32:41;19.70;99.90
5578;DHT22;2811;51.900;10.734;2022-08-21T06:35:08;19.60;99.90
5578;DHT22;2811;51.900;10.734;2022-08-21T06:37:35;20.00;99.90
5578;DHT22;2811;51.900;10.734;2022-08-21T06:40:03;19.90;99.90
5578;DHT22;2811;51.900;10.734;2022-08-21T06:42:31;20.20;99.90
5578;DHT22;2811;51.900;10.734;2022-08-21T06:44:57;20.40;99.90
5578;DHT22;2811;51.900;10.734;2022-08-21T06:47:25;20.70;99.90
5578;DHT22;2811;51.900;10.734;2022-08-21T06:49:52;21.00;99.90
5578;DHT22;2811;51.900;10.734;2022-08-21T06:52:19;21.50;99.90
5578;DHT22;2811;51.900;10.734;2022-08-21T06:54:46;21.80;99.90
5578;DHT22;2811;51.900;10.734;2022-08-21T06:57:12;22.00;99.90
5578;DHT22;2811;51.900;10.734;2022-08-21T06:59:39;22.10;99.90
5578;DHT22;2811;51.900;10.734;2022-08-21T07:02:06;22.00;99.90
5578;DHT22;2811;51.900;10.734;2022-08-21T07:04:34;21.40;99.90
5578;DHT22;2811;51.900;10.734;2022-08-21T07:07:01;21.10;99.90
5578;DHT22;2811;51.900;10.734;2022-08-21T07:09:27;21.00;99.90
5578;DHT22;2811;51.900;10.734;2022-08-21T07:11:55;21.20;99.90
5578;DHT22;2811;51.900;10.734;2022-08-21T07:14:22;21.20;99.90
5578;DHT22;2811;51.900;10.734;2022-08-21T07:16:49;21.30;99.70
5578;DHT22;2811;51.900;10.734;2022-08-21T07:19:17;21.40;98.70
5578;DHT22;2811;51.900;10.734;2022-08-21T07:21:46;21.40;98.40
5578;DHT22;2811;51.900;10.734;2022-08-21T07:24:13;21.60;98.30
5578;DHT22;2811;51.900;10.734;2022-08-21T07:26:40;21.70;98.00
5578;DHT22;2811;51.900;10.734;2022-08-21T07:29:07;21.80;98.30
5578;DHT22;2811;51.900;10.734;2022-08-21T07:31:34;21.90;98.10
5578;DHT22;2811;51.900;10.734;2022-08-21T07:34:00;22.20;98.00
5578;DHT22;2811;51.900;10.734;2022-08-21T07:36:27;22.20;97.40
5578;DHT22;2811;51.900;10.734;2022-08-21T07:38:55;22.40;97.70
5578;DHT22;2811;51.900;10.734;2022-08-21T07:41:25;22.50;97.70
5578;DHT22;2811;51.900;10.734;2022-08-21T07:43:52;22.40;97.80
5578;DHT22;2811;51.900;10.734;2022-08-21T07:46:19;22.30;97.90
5578;DHT22;2811;51.900;10.734;2022-08-21T07:48:46;22.40;97.80
5578;DHT22;2811;51.900;10.734;2022-08-21T07:51:15;22.60;98.30
5578;DHT22;2811;51.900;10.734;2022-08-21T07:53:42;22.70;97.90
5578;DHT22;2811;51.900;10.734;2022-08-21T07:56:14;22.80;98.10
5578;DHT22;2811;51.900;10.734;2022-08-21T07:58:41;23.10;98.50
5578;DHT22;2811;51.900;10.734;2022-08-21T08:01:08;22.90;97.90
5578;DHT22;2811;51.900;10.734;2022-08-21T08:03:34;22.80;98.90
5578;DHT22;2811;51.900;10.734;2022-08-21T08:06:01;23.10;99.30
5578;DHT22;2811;51.900;10.734;2022-08-21T08:08:30;23.20;99.00
5578;DHT22;2811;51.900;10.734;2022-08-21T08:10:58;23.30;99.10
5578;DHT22;2811;51.900;10.734;2022-08-21T08:13:26;23.50;99.10
5578;DHT22;2811;51.900;10.734;2022-08-21T08:15:53;23.90;98.90
5578;DHT22;2811;51.900;10.734;2022-08-21T08:18:19;24.30;98.50
5578;DHT22;2811;51.900;10.734;2022-08-21T08:20:46;24.40;98.40
5578;DHT22;2811;51.900;10.734;2022-08-21T08:23:14;23.80;98.50
5578;DHT22;2811;51.900;10.734;2022-08-21T08:25:41;23.20;99.70
5578;DHT22;2811;51.900;10.734;2022-08-21T08:28:08;23.70;99.70
5578;DHT22;2811;51.900;10.734;2022-08-21T08:30:36;24.20;99.20
5578;DHT22;2811;51.900;10.734;2022-08-21T08:33:02;24.30;98.70
5578;DHT22;2811;51.900;10.734;2022-08-21T08:35:29;24.30;96.60
5578;DHT22;2811;51.900;10.734;2022-08-21T08:37:56;24.30;96.70
5578;DHT22;2811;51.900;10.734;2022-08-21T08:40:28;24.40;97.00
5578;DHT22;2811;51.900;10.734;2022-08-21T08:42:58;24.70;96.50
5578;DHT22;2811;51.900;10.734;2022-08-21T08:45:25;25.10;96.00
5578;DHT22;2811;51.900;10.734;2022-08-21T08:47:58;24.90;94.70
5578;DHT22;2811;51.900;10.734;2022-08-21T08:50:37;24.20;93.70
5578;DHT22;2811;51.900;10.734;2022-08-21T08:53:10;24.30;94.20
5578;DHT22;2811;51.900;10.734;2022-08-21T08:55:40;24.30;94.70
5578;DHT22;2811;51.900;10.734;2022-08-21T08:58:09;24.50;94.30
5578;DHT22;2811;51.900;10.734;2022-08-21T09:00:38;24.60;94.30
5578;DHT22;2811;51.900;10.734;2022-08-21T09:03:06;24.70;94.80
5578;DHT22;2811;51.900;10.734;2022-08-21T09:05:38;24.80;94.90
5578;DHT22;2811;51.900;10.734;2022-08-21T09:08:31;24.40;95.20
5578;DHT22;2811;51.900;10.734;2022-08-21T09:11:02;24.70;94.60
5578;DHT22;2811;51.900;10.734;2022-08-21T09:13:37;24.70;94.00
5578;DHT22;2811;51.900;10.734;2022-08-21T09:16:15;25.00;94.50
5578;DHT22;2811;51.900;10.734;2022-08-21T09:18:54;25.20;93.50
5578;DHT22;2811;51.900;10.734;2022-08-21T09:21:30;25.60;92.90
5578;DHT22;2811;51.900;10.734;2022-08-21T09:24:06;25.90;92.30
5578;DHT22;2811;51.900;10.734;2022-08-21T09:26:42;25.90;91.70
5578;DHT22;2811;51.900;10.734;2022-08-21T09:29:14;25.90;91.60
5578;DHT22;2811;51.900;10.734;2022-08-21T09:31:43;25.90;91.30
5578;DHT22;2811;51.900;10.734;2022-08-21T09:34:11;25.80;91.10
5578;DHT22;2811;51.900;10.734;2022-08-21T09:36:41;25.70;91.10
5578;DHT22;2811;51.900;10.734;2022-08-21T09:39:10;25.70;92.60
5578;DHT22;2811;51.900;10.734;2022-08-21T09:41:38;25.80;92.60
5578;DHT22;2811;51.900;10.734;2022-08-21T09:44:07;25.70;92.40
5578;DHT22;2811;51.900;10.734;2022-08-21T09:46:34;25.50;93.10
5578;DHT22;2811;51.900;10.734;2022-08-21T09:49:03;25.50;93.50
5578;DHT22;2811;51.900;10.734;2022-08-21T09:51:35;25.40;94.60
5578;DHT22;2811;51.900;10.734;2022-08-21T09:54:14;25.20;95.10
5578;DHT22;2811;51.900;10.734;2022-08-21T09:56:53;25.20;94.90
5578;DHT22;2811;51.900;10.734;2022-08-21T09:59:38;25.30;95.10
5578;DHT22;2811;51.900;10.734;2022-08-21T10:02:23;24.90;94.50
5578;DHT22;2811;51.900;10.734;2022-08-21T10:04:51;25.10;94.90
5578;DHT22;2811;51.900;10.734;2022-08-21T10:07:21;25.20;95.40
5578;DHT22;2811;51.900;10.734;2022-08-21T10:09:59;25.40;94.50
5578;DHT22;2811;51.900;10.734;2022-08-21T10:12:30;25.50;94.20
5578;DHT22;2811;51.900;10.734;2022-08-21T10:15:03;25.40;94.80
5578;DHT22;2811;51.900;10.734;2022-08-21T10:17:37;25.20;96.20
5578;DHT22;2811;51.900;10.734;2022-08-21T10:20:14;25.00;96.90
5578;DHT22;2811;51.900;10.734;2022-08-21T10:23:06;25.00;97.20
5578;DHT22;2811;51.900;10.734;2022-08-21T10:25:43;25.30;96.60
5578;DHT22;2811;51.900;10.734;2022-08-21T10:28:15;25.50;96.10
5578;DHT22;2811;51.900;10.734;2022-08-21T10:30:48;25.70;95.70
5578;DHT22;2811;51.900;10.734;2022-08-21T10:33:32;25.70;95.70
5578;DHT22;2811;51.900;10.734;2022-08-21T10:36:10;25.90;94.90
5578;DHT22;2811;51.900;10.734;2022-08-21T10:38:59;25.80;94.60
5578;DHT22;2811;51.900;10.734;2022-08-21T10:41:48;25.40;95.20
5578;DHT22;2811;51.900;10.734;2022-08-21T10:44:23;25.20;95.90
5578;DHT22;2811;51.900;10.734;2022-08-21T10:46:56;25.20;96.00
5578;DHT22;2811;51.900;10.734;2022-08-21T10:49:34;25.10;95.70
5578;DHT22;2811;51.900;10.734;2022-08-21T10:52:24;25.00;95.90
5578;DHT22;2811;51.900;10.734;2022-08-21T10:55:00;25.20;95.80
5578;DHT22;2811;51.900;10.734;2022-08-21T10:57:36;25.20;95.20
5578;DHT22;2811;51.900;10.734;2022-08-21T11:00:06;25.50;94.90
5578;DHT22;2811;51.900;10.734;2022-08-21T11:02:40;25.70;94.20
5578;DHT22;2811;51.900;10.734;2022-08-21T11:05:12;26.00;93.60
5578;DHT22;2811;51.900;10.734;2022-08-21T11:07:47;26.40;93.20
5578;DHT22;2811;51.900;10.734;2022-08-21T11:10:20;26.50;92.60
5578;DHT22;2811;51.900;10.734;2022-08-21T11:12:52;27.20;91.20
5578;DHT22;2811;51.900;10.734;2022-08-21T11:15:28;27.20;91.30
5578;DHT22;2811;51.900;10.734;2022-08-21T11:18:02;27.10;91.70
5578;DHT22;2811;51.900;10.734;2022-08-21T11:20:34;26.70;92.70
5578;DHT22;2811;51.900;10.734;2022-08-21T11:23:09;26.70;92.70
5578;DHT22;2811;51.900;10.734;2022-08-21T11:25:42;26.50;92.80
5578;DHT22;2811;51.900;10.734;2022-08-21T11:28:15;26.60;92.60
5578;DHT22;2811;51.900;10.734;2022-08-21T11:30:58;26.80;92.50
5578;DHT22;2811;51.900;10.734;2022-08-21T11:33:34;26.90;91.60
5578;DHT22;2811;51.900;10.734;2022-08-21T11:36:12;26.70;92.50
5578;DHT22;2811;51.900;10.734;2022-08-21T11:38:44;26.40;92.50
5578;DHT22;2811;51.900;10.734;2022-08-21T11:41:22;26.30;92.30
5578;DHT22;2811;51.900;10.734;2022-08-21T11:43:56;26.70;92.70
5578;DHT22;2811;51.900;10.734;2022-08-21T11:46:33;27.30;91.90
5578;DHT22;2811;51.900;10.734;2022-08-21T11:49:12;27.60;91.20
5578;DHT22;2811;51.900;10.734;2022-08-21T11:51:48;27.90;90.40
5578;DHT22;2811;51.900;10.734;2022-08-21T11:54:25;27.90;90.60
5578;DHT22;2811;51.900;10.734;2022-08-21T11:57:01;27.80;90.80
5578;DHT22;2811;51.900;10.734;2022-08-21T11:59:35;28.10;89.20
5578;DHT22;2811;51.900;10.734;2022-08-21T12:02:09;28.00;89.40
5578;DHT22;2811;51.900;10.734;2022-08-21T12:04:44;27.90;90.00
5578;DHT22;2811;51.900;10.734;2022-08-21T12:07:14;27.80;90.00
5578;DHT22;2811;51.900;10.734;2022-08-21T12:09:52;27.40;90.10
5578;DHT22;2811;51.900;10.734;2022-08-21T12:12:26;27.10;90.30
5578;DHT22;2811;51.900;10.734;2022-08-21T12:15:15;26.70;91.30
5578;DHT22;2811;51.900;10.734;2022-08-21T12:17:58;26.50;91.20
5578;DHT22;2811;51.900;10.734;2022-08-21T12:20:34;26.50;91.20
5578;DHT22;2811;51.900;10.734;2022-08-21T12:23:05;26.50;91.20
5578;DHT22;2811;51.900;10.734;2022-08-21T12:25:37;26.40;90.00
5578;DHT22;2811;51.900;10.734;2022-08-21T12:28:09;26.30;90.60
5578;DHT22;2811;51.900;10.734;2022-08-21T12:30:40;26.20;90.70
5578;DHT22;2811;51.900;10.734;2022-08-21T12:33:20;26.20;90.80
5578;DHT22;2811;51.900;10.734;2022-08-21T12:35:48;26.30;90.80
5578;DHT22;2811;51.900;10.734;2022-08-21T12:38:18;26.30;90.30
5578;DHT22;2811;51.900;10.734;2022-08-21T12:40:50;26.50;89.80
5578;DHT22;2811;51.900;10.734;2022-08-21T12:43:23;26.40;90.00
5578;DHT22;2811;51.900;10.734;2022-08-21T12:45:51;26.20;89.90
5578;DHT22;2811;51.900;10.734;2022-08-21T12:48:21;26.30;90.10
5578;DHT22;2811;51.900;10.734;2022-08-21T12:50:51;26.70;90.10
5578;DHT22;2811;51.900;10.734;2022-08-21T12:53:25;26.70;89.80
5578;DHT22;2811;51.900;10.734;2022-08-21T12:55:53;26.50;87.80
5578;DHT22;2811;51.900;10.734;2022-08-21T12:58:26;26.60;87.80
5578;DHT22;2811;51.900;10.734;2022-08-21T13:01:02;26.90;87.30
5578;DHT22;2811;51.900;10.734;2022-08-21T13:03:29;27.20;85.90
5578;DHT22;2811;51.900;10.734;2022-08-21T13:05:58;27.40;85.00
5578;DHT22;2811;51.900;10.734;2022-08-21T13:08:26;27.40;84.30
5578;DHT22;2811;51.900;10.734;2022-08-21T13:10:58;27.30;85.00
5578;DHT22;2811;51.900;10.734;2022-08-21T13:13:27;27.10;85.40
5578;DHT22;2811;51.900;10.734;2022-08-21T13:15:58;27.00;83.60
5578;DHT22;2811;51.900;10.734;2022-08-21T13:18:29;27.10;83.40
5578;DHT22;2811;51.900;10.734;2022-08-21T13:21:05;27.10;83.20
5578;DHT22;2811;51.900;10.734;2022-08-21T13:23:32;27.50;82.80
5578;DHT22;2811;51.900;10.734;2022-08-21T13:25:59;27.50;81.90
5578;DHT22;2811;51.900;10.734;2022-08-21T13:28:34;27.40;81.70
5578;DHT22;2811;51.900;10.734;2022-08-21T13:31:07;27.40;83.30
5578;DHT22;2811;51.900;10.734;2022-08-21T13:33:36;27.70;81.10
5578;DHT22;2811;51.900;10.734;2022-08-21T13:36:07;27.60;82.50
5578;DHT22;2811;51.900;10.734;2022-08-21T13:38:36;27.80;81.00
5578;DHT22;2811;51.900;10.734;2022-08-21T13:41:06;27.90;81.20
5578;DHT22;2811;51.900;10.734;2022-08-21T13:43:36;28.00;80.10
5578;DHT22;2811;51.900;10.734;2022-08-21T13:46:08;27.80;79.60
5578;DHT22;2811;51.900;10.734;2022-08-21T13:48:36;27.90;79.90
5578;DHT22;2811;51.900;10.734;2022-08-21T13:51:04;28.00;79.40
5578;DHT22;2811;51.900;10.734;2022-08-21T13:53:34;28.00;78.00
5578;DHT22;2811;51.900;10.734;2022-08-21T13:56:03;28.00;78.10
5578;DHT22;2811;51.900;10.734;2022-08-21T13:58:41;27.80;78.30
5578;DHT22;2811;51.900;10.734;2022-08-21T14:01:19;27.60;79.30
5578;DHT22;2811;51.900;10.734;2022-08-21T14:03:48;27.60;78.70
5578;DHT22;2811;51.900;10.734;2022-08-21T14:06:18;27.40;81.00
5578;DHT22;2811;51.900;10.734;2022-08-21T14:08:50;27.40;81.70
5578;DHT22;2811;51.900;10.734;2022-08-21T14:11:18;27.50;80.70
5578;DHT22;2811;51.900;10.734;2022-08-21T14:13:47;27.50;78.40
5578;DHT22;2811;51.900;10.734;2022-08-21T14:16:19;27.40;79.60
5578;DHT22;2811;51.900;10.734;2022-08-21T14:18:52;27.20;80.40
5578;DHT22;2811;51.900;10.734;2022-08-21T14:21:30;27.20;79.70
5578;DHT22;2811;51.900;10.734;2022-08-21T14:24:06;27.20;80.40
5578;DHT22;2811;51.900;10.734;2022-08-21T14:26:36;27.20;80.80
5578;DHT22;2811;51.900;10.734;2022-08-21T14:29:09;27.20;79.60
5578;DHT22;2811;51.900;10.734;2022-08-21T14:31:38;27.20;78.90
5578;DHT22;2811;51.900;10.734;2022-08-21T14:34:04;27.20;79.10
5578;DHT22;2811;51.900;10.734;2022-08-21T14:36:31;27.30;78.60
5578;DHT22;2811;51.900;10.734;2022-08-21T14:38:58;27.40;79.30
5578;DHT22;2811;51.900;10.734;2022-08-21T14:41:25;27.40;77.10
5578;DHT22;2811;51.900;10.734;2022-08-21T14:43:56;27.40;77.40
5578;DHT22;2811;51.900;10.734;2022-08-21T14:46:25;27.30;79.20
5578;DHT22;2811;51.900;10.734;2022-08-21T14:48:53;27.40;77.80
5578;DHT22;2811;51.900;10.734;2022-08-21T14:51:20;27.40;77.70
5578;DHT22;2811;51.900;10.734;2022-08-21T14:53:47;27.40;77.30
5578;DHT22;2811;51.900;10.734;2022-08-21T14:56:15;27.50;76.80
5578;DHT22;2811;51.900;10.734;2022-08-21T14:58:44;27.60;75.40
5578;DHT22;2811;51.900;10.734;2022-08-21T15:01:12;27.70;72.50
5578;DHT22;2811;51.900;10.734;2022-08-21T15:03:39;27.60;71.10
5578;DHT22;2811;51.900;10.734;2022-08-21T15:06:08;27.40;71.70
5578;DHT22;2811;51.900;10.734;2022-08-21T15:08:35;27.40;71.50
5578;DHT22;2811;51.900;10.734;2022-08-21T15:11:03;27.50;72.90
5578;DHT22;2811;51.900;10.734;2022-08-21T15:13:30;27.60;73.70
5578;DHT22;2811;51.900;10.734;2022-08-21T15:15:58;27.60;73.10
5578;DHT22;2811;51.900;10.734;2022-08-21T15:18:28;27.70;72.80
5578;DHT22;2811;51.900;10.734;2022-08-21T15:20:55;27.60;72.60
5578;DHT22;2811;51.900;10.734;2022-08-21T15:23:23;27.60;72.90
5578;DHT22;2811;51.900;10.734;2022-08-21T15:25:50;27.70;71.90
5578;DHT22;2811;51.900;10.734;2022-08-21T15:28:19;27.60;71.00
5578;DHT22;2811;51.900;10.734;2022-08-21T15:30:46;27.50;71.00
5578;DHT22;2811;51.900;10.734;2022-08-21T15:33:13;27.50;71.40
5578;DHT22;2811;51.900;10.734;2022-08-21T15:35:40;27.50;70.80
5578;DHT22;2811;51.900;10.734;2022-08-21T15:38:07;27.50;74.10
5578;DHT22;2811;51.900;10.734;2022-08-21T15:40:35;27.30;71.70
5578;DHT22;2811;51.900;10.734;2022-08-21T15:43:04;27.30;72.60
5578;DHT22;2811;51.900;10.734;2022-08-21T15:45:32;27.20;73.10
5578;DHT22;2811;51.900;10.734;2022-08-21T15:47:59;27.20;73.00
5578;DHT22;2811;51.900;10.734;2022-08-21T15:50:28;27.50;72.90
5578;DHT22;2811;51.900;10.734;2022-08-21T15:52:57;28.20;71.50
5578;DHT22;2811;51.900;10.734;2022-08-21T15:55:24;29.00;69.20
5578;DHT22;2811;51.900;10.734;2022-08-21T15:57:52;29.80;66.30
5578;DHT22;2811;51.900;10.734;2022-08-21T16:00:22;30.20;65.40